createdAt,value
2023-10-16T00:00:42.652Z,82.77
2023-10-16T00:03:10.276Z,83.96
2023-10-16T00:05:50.749Z,83.72
2023-10-16T00:08:18.015Z,83.56
2023-10-16T00:10:58.099Z,83.55
2023-10-16T00:13:29.606Z,84.02
2023-10-16T00:15:58.772Z,84.39
2023-10-16T00:18:30.766Z,84.85
2023-10-16T00:20:57.471Z,85.69
2023-10-16T00:23:27.210Z,85.29
2023-10-16T00:28:26.020Z,86.83
2023-10-16T00:30:52.996Z,87.29
2023-10-16T00:41:18.712Z,85.57
2023-10-16T01:02:17.559Z,85.39
2023-10-16T01:04:44.656Z,86.50
2023-10-16T01:07:16.809Z,86.73
2023-10-16T01:09:44.116Z,87.29
2023-10-16T01:12:13.672Z,86.78
2023-10-16T01:14:41.416Z,86.20
2023-10-16T01:17:12.435Z,86.26
2023-10-16T01:19:42.703Z,86.16
2023-10-16T01:22:13.089Z,85.59
2023-10-16T01:24:45.572Z,85.59
2023-10-16T01:30:03.098Z,85.12
2023-10-16T01:32:29.958Z,85.44
2023-10-16T01:34:57.492Z,85.69
2023-10-16T01:37:25.135Z,85.57
2023-10-16T01:39:56.923Z,85.58
2023-10-16T01:42:25.550Z,85.45
2023-10-16T01:44:53.145Z,84.77
2023-10-16T01:47:20.116Z,84.84
2023-10-16T01:49:50.896Z,84.08
2023-10-16T01:52:18.107Z,84.90
2023-10-16T01:54:47.627Z,84.58
2023-10-16T01:57:14.992Z,84.83
2023-10-16T01:59:44.147Z,85.14
2023-10-16T02:02:12.813Z,85.29
2023-10-16T02:04:40.106Z,85.07
2023-10-16T02:07:08.335Z,84.51
2023-10-16T02:09:38.465Z,84.98
2023-10-16T02:27:32.677Z,85.33
2023-10-16T02:35:14.604Z,85.41
2023-10-16T02:37:42.351Z,86.32
2023-10-16T02:40:12.581Z,86.53
2023-10-16T02:42:42.255Z,86.82
2023-10-16T02:45:25.479Z,86.31
2023-10-16T02:47:53.645Z,86.34
2023-10-16T02:50:21.293Z,87.05
2023-10-16T02:52:51.539Z,86.50
2023-10-16T02:55:18.377Z,86.29
2023-10-16T02:57:45.171Z,85.40
2023-10-16T03:00:19.214Z,85.28
2023-10-16T03:02:49.088Z,85.35
2023-10-16T03:08:15.073Z,85.79
2023-10-16T03:10:41.746Z,85.78
2023-10-16T03:13:08.531Z,85.85
2023-10-16T03:15:47.850Z,84.70
2023-10-16T03:18:19.210Z,85.13
2023-10-16T03:20:47.584Z,85.43
2023-10-16T03:23:15.495Z,85.88
2023-10-16T03:25:43.375Z,84.43
2023-10-16T03:28:10.888Z,84.76
2023-10-16T03:30:38.453Z,85.03
2023-10-16T03:33:05.473Z,85.16
2023-10-16T03:38:12.905Z,85.70
2023-10-16T03:43:15.334Z,85.35
2023-10-16T03:48:21.465Z,86.43
2023-10-16T03:50:48.384Z,85.73
2023-10-16T03:53:15.099Z,85.79
2023-10-16T03:55:45.873Z,84.99
2023-10-16T03:58:13.621Z,85.30
2023-10-16T04:00:58.344Z,85.53
2023-10-16T04:03:28.441Z,86.21
2023-10-16T04:05:55.438Z,86.33
2023-10-16T04:08:27.022Z,86.46
2023-10-16T04:10:57.828Z,86.55
2023-10-16T04:16:06.958Z,85.71
2023-10-16T04:18:34.566Z,86.04
2023-10-16T04:21:15.652Z,86.52
2023-10-16T04:23:49.404Z,86.68
2023-10-16T04:26:29.965Z,86.32
2023-10-16T04:34:24.875Z,87.00
2023-10-16T04:37:21.440Z,87.19
2023-10-16T04:39:56.529Z,86.83
2023-10-16T04:42:45.979Z,86.66
2023-10-16T04:45:17.142Z,86.00
2023-10-16T04:47:49.317Z,86.10
2023-10-16T04:50:16.537Z,85.64
2023-10-16T04:53:01.189Z,85.96
2023-10-16T04:55:40.977Z,85.71
2023-10-16T04:58:21.122Z,86.06
2023-10-16T05:01:10.364Z,86.08
2023-10-16T05:03:43.933Z,86.53
2023-10-16T05:06:16.398Z,86.49
2023-10-16T05:08:43.992Z,86.51
2023-10-16T05:11:16.351Z,86.27
2023-10-16T05:14:17.986Z,86.08
2023-10-16T05:17:19.106Z,85.25
2023-10-16T05:22:38.759Z,85.97
2023-10-16T05:25:25.069Z,85.31
2023-10-16T05:28:10.217Z,85.45
2023-10-16T05:30:55.864Z,84.67
2023-10-16T05:33:40.946Z,84.95
2023-10-16T05:36:26.481Z,85.87
2023-10-16T05:39:11.929Z,85.78
2023-10-16T05:41:57.225Z,86.83
2023-10-16T05:44:42.344Z,86.30
2023-10-16T05:47:27.405Z,86.60
2023-10-16T05:50:12.659Z,85.85
2023-10-16T05:52:59.303Z,86.13
2023-10-16T05:55:46.154Z,86.33
2023-10-16T05:58:31.614Z,86.92
2023-10-16T06:04:16.784Z,88.07
2023-10-16T06:07:02.095Z,86.99
2023-10-16T06:09:47.567Z,87.07
2023-10-16T06:12:33.090Z,86.61
2023-10-16T06:14:59.895Z,85.91
2023-10-16T06:17:26.623Z,86.05
2023-10-16T06:19:53.425Z,85.46
2023-10-16T06:22:20.149Z,85.63
2023-10-16T06:24:49.013Z,85.45
2023-10-16T06:27:25.908Z,85.69
2023-10-16T06:29:53.204Z,85.69
2023-10-16T06:34:59.967Z,87.12
2023-10-16T06:40:06.487Z,86.10
2023-10-16T06:42:33.318Z,86.14
2023-10-16T06:45:08.611Z,85.78
2023-10-16T06:47:38.695Z,86.33
2023-10-16T06:50:27.171Z,86.99
2023-10-16T06:52:55.599Z,86.03
2023-10-16T06:55:22.798Z,86.27
2023-10-16T06:57:49.728Z,87.02
2023-10-16T07:00:33.764Z,87.22
2023-10-16T07:03:03.719Z,86.72
2023-10-16T07:08:22.143Z,85.14
2023-10-16T07:11:05.041Z,84.98
2023-10-16T07:13:40.088Z,83.84
2023-10-16T07:16:08.724Z,83.50
2023-10-16T07:18:37.028Z,83.77
2023-10-16T07:21:07.690Z,83.17
2023-10-16T07:23:38.567Z,82.51
2023-10-16T07:26:10.849Z,81.35
2023-10-16T07:31:14.314Z,82.10
2023-10-16T07:33:43.068Z,81.96
2023-10-16T07:36:13.057Z,81.97
2023-10-16T07:38:40.495Z,81.44
2023-10-16T07:41:10.949Z,81.28
2023-10-16T07:43:37.751Z,81.82
2023-10-16T07:46:12.679Z,83.60
2023-10-16T07:48:41.957Z,81.78
2023-10-16T07:53:40.798Z,80.92
2023-10-16T07:56:27.396Z,80.75
2023-10-16T07:59:11.184Z,80.76
2023-10-16T08:01:47.678Z,79.81
2023-10-16T08:04:23.824Z,79.86
2023-10-16T08:07:07.761Z,78.90
2023-10-16T08:09:35.589Z,78.46
2023-10-16T08:12:20.116Z,78.07
2023-10-16T08:14:52.595Z,77.88
2023-10-16T08:17:25.442Z,76.61
2023-10-16T08:19:52.713Z,76.33
2023-10-16T08:22:24.127Z,76.44
2023-10-16T08:25:00.208Z,76.57
2023-10-16T08:27:40.234Z,74.64
2023-10-16T08:30:34.626Z,75.03
2023-10-16T08:33:09.206Z,73.68
2023-10-16T08:35:40.003Z,72.62
2023-10-16T08:38:13.740Z,71.73
2023-10-16T08:40:45.292Z,71.93
2023-10-16T08:43:18.458Z,71.85
2023-10-16T08:45:50.080Z,69.73
2023-10-16T08:48:23.362Z,68.99
2023-10-16T08:50:58.840Z,70.72
2023-10-16T08:53:32.930Z,70.21
2023-10-16T08:56:09.082Z,70.10
2023-10-16T08:58:41.066Z,68.61
2023-10-16T09:01:09.383Z,68.71
2023-10-16T09:03:39.750Z,67.64
2023-10-16T09:06:06.686Z,68.02
2023-10-16T09:08:34.661Z,67.66
2023-10-16T09:13:41.312Z,66.70
2023-10-16T09:16:16.249Z,66.92
2023-10-16T09:18:43.606Z,67.41
2023-10-16T09:21:24.604Z,66.45
2023-10-16T09:23:59.917Z,65.94
2023-10-16T09:26:30.509Z,66.00
2023-10-16T09:29:05.583Z,66.21
2023-10-16T09:31:33.399Z,65.37
2023-10-16T09:36:37.806Z,65.34
2023-10-16T09:39:18.270Z,63.22
2023-10-16T09:41:52.713Z,62.18
2023-10-16T09:44:38.289Z,63.37
2023-10-16T09:47:25.432Z,62.55
2023-10-16T09:49:54.267Z,63.12
2023-10-16T09:52:22.085Z,61.96
2023-10-16T09:54:50.080Z,61.60
2023-10-16T09:57:24.987Z,61.69
2023-10-16T10:00:18.189Z,61.60
2023-10-16T10:02:47.322Z,60.86
2023-10-16T10:05:15.246Z,59.97
2023-10-16T10:07:50.705Z,61.77
2023-10-16T10:10:48.671Z,61.02
2023-10-16T10:13:18.328Z,60.85
2023-10-16T10:15:51.251Z,60.48
2023-10-16T10:18:34.344Z,59.93
2023-10-16T10:21:03.698Z,60.39
2023-10-16T10:23:33.852Z,60.04
2023-10-16T10:26:08.659Z,59.03
2023-10-16T10:28:39.636Z,59.48
2023-10-16T10:31:07.137Z,56.36
2023-10-16T10:33:43.936Z,54.56
2023-10-16T10:36:36.540Z,55.29
2023-10-16T10:39:29.312Z,54.05
2023-10-16T10:42:05.129Z,50.90
2023-10-16T10:44:37.109Z,48.71
2023-10-16T10:47:22.110Z,48.27
2023-10-16T10:49:52.151Z,49.31
2023-10-16T10:52:21.430Z,47.20
2023-10-16T10:54:59.722Z,46.67
2023-10-16T10:57:28.113Z,46.43
2023-10-16T11:00:04.420Z,47.48
2023-10-16T11:02:31.232Z,46.41
2023-10-16T11:05:00.926Z,46.36
2023-10-16T11:07:40.781Z,45.11
2023-10-16T11:10:08.675Z,44.46
2023-10-16T11:12:35.628Z,45.51
2023-10-16T11:15:07.421Z,46.40
2023-10-16T11:17:36.055Z,44.42
2023-10-16T11:20:28.920Z,44.45
2023-10-16T11:22:58.323Z,45.14
2023-10-16T11:25:30.503Z,43.44
2023-10-16T11:28:08.726Z,44.71
2023-10-16T11:33:17.483Z,45.54
2023-10-16T11:38:31.030Z,44.00
2023-10-16T11:41:06.268Z,42.84
2023-10-16T11:43:39.158Z,43.01
2023-10-16T11:46:21.609Z,43.26
2023-10-16T11:48:51.532Z,42.31
2023-10-16T11:51:18.515Z,44.46
2023-10-16T11:53:45.549Z,43.51
2023-10-16T11:56:14.565Z,44.42
2023-10-16T11:58:41.750Z,42.21
2023-10-16T12:03:41.015Z,41.72
2023-10-16T12:06:10.010Z,42.03
2023-10-16T12:11:09.586Z,42.29
2023-10-16T12:13:36.385Z,43.11
2023-10-16T12:16:03.189Z,41.70
2023-10-16T12:18:32.694Z,42.09
2023-10-16T12:21:09.505Z,42.56
2023-10-16T12:23:38.213Z,42.18
2023-10-16T12:26:06.286Z,42.45
2023-10-16T12:28:35.424Z,42.81
2023-10-16T12:31:04.252Z,42.35
2023-10-16T12:33:32.465Z,43.32
2023-10-16T12:36:02.397Z,42.95
2023-10-16T12:38:29.186Z,43.86
2023-10-16T12:41:00.753Z,43.45
2023-10-16T12:43:29.004Z,42.88
2023-10-16T12:48:31.531Z,42.54
2023-10-16T12:51:11.209Z,42.74
2023-10-16T12:53:40.344Z,43.43
2023-10-16T12:56:07.733Z,42.12
2023-10-16T12:58:35.404Z,43.88
2023-10-16T13:03:46.810Z,45.11
2023-10-16T13:06:13.775Z,45.66
2023-10-16T13:08:41.174Z,45.02
2023-10-16T13:11:08.797Z,44.69
2023-10-16T13:13:36.095Z,44.07
2023-10-16T13:18:44.968Z,44.41
2023-10-16T13:21:15.350Z,45.26
2023-10-16T13:23:46.735Z,44.69
2023-10-16T13:26:16.155Z,45.72
2023-10-16T13:28:44.687Z,45.85
2023-10-16T13:31:11.789Z,45.20
2023-10-16T13:33:42.962Z,45.09
2023-10-16T13:36:13.392Z,44.40
2023-10-16T13:38:40.845Z,45.74
2023-10-16T13:41:19.886Z,44.08
2023-10-16T13:43:49.489Z,43.71
2023-10-16T13:46:16.491Z,43.54
2023-10-16T13:51:27.235Z,44.67
2023-10-16T13:53:53.958Z,44.97
2023-10-16T13:56:21.171Z,44.76
2023-10-16T13:58:47.971Z,43.57
2023-10-16T14:01:15.946Z,42.65
2023-10-16T14:03:43.990Z,43.72
2023-10-16T14:06:14.205Z,44.01
2023-10-16T14:08:43.034Z,44.05
2023-10-16T14:11:15.998Z,44.20
2023-10-16T14:13:42.786Z,44.65
2023-10-16T14:16:09.608Z,44.73
2023-10-16T14:18:36.954Z,45.59
2023-10-16T14:21:10.045Z,45.72
2023-10-16T14:26:23.194Z,45.08
2023-10-16T14:28:53.928Z,45.44
2023-10-16T14:31:23.121Z,45.03
2023-10-16T14:36:31.231Z,46.08
2023-10-16T14:38:58.424Z,45.61
2023-10-16T14:41:25.241Z,46.35
2023-10-16T14:43:55.806Z,44.95
2023-10-16T14:46:24.259Z,45.68
2023-10-16T14:48:52.010Z,45.81
2023-10-16T14:51:19.716Z,46.07
2023-10-16T14:53:49.990Z,45.87
2023-10-16T14:56:20.656Z,45.66
2023-10-16T15:01:35.012Z,46.86
2023-10-16T15:04:02.960Z,46.56
2023-10-16T15:06:31.205Z,45.94
2023-10-16T15:09:00.867Z,45.92
2023-10-16T15:11:30.175Z,46.54
2023-10-16T15:13:57.270Z,46.75
2023-10-16T15:16:24.255Z,47.76
2023-10-16T15:18:51.060Z,46.77
2023-10-16T15:21:17.890Z,47.07
2023-10-16T15:23:46.858Z,47.95
2023-10-16T15:26:13.565Z,46.94
2023-10-16T15:31:14.023Z,47.29
2023-10-16T15:33:42.089Z,47.50
2023-10-16T15:36:09.285Z,47.74
2023-10-16T15:38:35.993Z,47.41
2023-10-16T15:41:02.798Z,48.25
2023-10-16T15:43:29.504Z,48.05
2023-10-16T15:48:27.529Z,47.41
2023-10-16T15:50:54.586Z,47.00
2023-10-16T15:53:22.469Z,47.12
2023-10-16T15:55:50.077Z,47.76
2023-10-16T15:58:16.913Z,47.44
2023-10-16T16:00:43.775Z,47.79
2023-10-16T16:03:10.731Z,48.27
2023-10-16T16:05:38.865Z,47.98
2023-10-16T16:08:07.682Z,48.41
2023-10-16T16:10:34.742Z,48.31
2023-10-16T16:13:02.659Z,48.03
2023-10-16T16:15:29.817Z,49.43
2023-10-16T16:18:01.888Z,48.94
2023-10-16T16:20:29.654Z,48.84
2023-10-16T16:22:58.025Z,49.18
2023-10-16T16:27:57.396Z,49.62
2023-10-16T16:30:24.289Z,50.06
2023-10-16T16:32:51.667Z,50.27
2023-10-16T16:35:19.827Z,50.69
2023-10-16T16:37:50.171Z,49.45
2023-10-16T16:40:20.276Z,49.43
2023-10-16T16:42:49.366Z,49.50
2023-10-16T16:45:22.235Z,49.60
2023-10-16T16:47:49.096Z,50.24
2023-10-16T16:50:18.952Z,50.39
2023-10-16T16:52:46.363Z,50.88
2023-10-16T16:57:45.739Z,51.20
2023-10-16T17:00:19.976Z,50.94
2023-10-16T17:02:48.764Z,51.01
2023-10-16T17:05:16.149Z,51.58
2023-10-16T17:07:43.584Z,51.17
2023-10-16T17:10:13.413Z,50.96
2023-10-16T17:12:42.176Z,51.67
2023-10-16T17:15:13.766Z,51.42
2023-10-16T17:17:42.215Z,52.24
2023-10-16T17:20:11.100Z,52.23
2023-10-16T17:22:55.993Z,52.57
2023-10-16T17:25:25.165Z,51.86
2023-10-16T17:27:53.024Z,52.39
2023-10-16T17:32:55.102Z,53.06
2023-10-16T17:35:29.553Z,53.38
2023-10-16T17:37:56.657Z,53.81
2023-10-16T17:40:23.432Z,53.63
2023-10-16T17:42:50.120Z,54.04
2023-10-16T17:47:48.730Z,54.21
2023-10-16T17:50:15.594Z,54.12
2023-10-16T17:52:43.705Z,54.65
2023-10-16T17:55:10.522Z,55.05
2023-10-16T17:57:37.778Z,55.06
2023-10-16T18:00:10.878Z,55.16
2023-10-16T18:02:38.518Z,56.74
2023-10-16T18:05:06.583Z,55.93
2023-10-16T18:07:33.382Z,56.01
2023-10-16T18:10:00.145Z,56.66
2023-10-16T18:12:26.817Z,55.85
2023-10-16T18:17:27.338Z,56.04
2023-10-16T18:19:54.146Z,55.88
2023-10-16T18:22:20.928Z,56.38
2023-10-16T18:24:47.891Z,56.66
2023-10-16T18:27:15.566Z,56.52
2023-10-16T18:29:46.561Z,57.68
2023-10-16T18:32:14.464Z,58.69
2023-10-16T18:34:42.779Z,58.70
2023-10-16T18:37:12.576Z,59.28
2023-10-16T18:39:39.627Z,60.10
2023-10-16T18:42:10.514Z,60.56
2023-10-16T18:44:38.091Z,60.97
2023-10-16T18:47:06.370Z,62.40
2023-10-16T18:49:33.309Z,62.00
2023-10-16T18:52:00.127Z,61.34
2023-10-16T18:54:27.289Z,62.05
2023-10-16T18:56:54.344Z,62.52
2023-10-16T18:59:22.855Z,64.03
2023-10-16T19:01:49.931Z,64.61
2023-10-16T19:06:49.535Z,64.63
2023-10-16T19:09:19.124Z,65.70
2023-10-16T19:11:46.429Z,66.60
2023-10-16T19:14:13.969Z,66.75
2023-10-16T19:16:42.000Z,67.45
2023-10-16T19:19:10.122Z,67.01
2023-10-16T19:21:39.308Z,67.53
2023-10-16T19:26:47.027Z,66.83
2023-10-16T19:29:14.406Z,67.09
2023-10-16T19:31:43.075Z,65.46
2023-10-16T19:34:10.169Z,64.00
2023-10-16T19:36:37.613Z,61.65
2023-10-16T19:39:06.969Z,61.52
2023-10-16T19:41:35.092Z,61.28
2023-10-16T19:44:02.200Z,60.98
2023-10-16T19:46:32.430Z,60.30
2023-10-16T19:48:59.422Z,60.26
2023-10-16T19:51:26.285Z,60.05
2023-10-16T19:53:56.860Z,60.48
2023-10-16T19:56:24.569Z,59.61
2023-10-16T19:58:54.226Z,60.33
2023-10-16T20:01:24.467Z,60.41
2023-10-16T20:03:51.567Z,60.11
2023-10-16T20:06:20.242Z,59.83
2023-10-16T20:08:47.730Z,60.75
2023-10-16T20:11:14.955Z,61.48
2023-10-16T20:13:43.178Z,62.94
2023-10-16T20:16:13.422Z,63.04
2023-10-16T20:21:13.822Z,65.65
2023-10-16T20:23:40.860Z,66.03
2023-10-16T20:26:18.456Z,66.88
2023-10-16T20:28:46.089Z,67.52
2023-10-16T20:31:14.705Z,68.72
2023-10-16T20:33:44.225Z,69.25
2023-10-16T20:36:11.384Z,66.71
2023-10-16T20:38:39.006Z,66.15
2023-10-16T20:41:06.849Z,66.41
2023-10-16T20:43:33.804Z,66.10
2023-10-16T20:46:04.378Z,68.18
2023-10-16T20:48:33.070Z,68.36
2023-10-16T20:53:32.912Z,68.64
2023-10-16T20:55:59.806Z,69.02
2023-10-16T20:58:26.695Z,70.45
2023-10-16T21:03:27.659Z,71.73
2023-10-16T21:05:54.500Z,72.88
2023-10-16T21:08:21.434Z,73.22
2023-10-16T21:10:48.246Z,72.09
2023-10-16T21:15:46.442Z,72.53
2023-10-16T21:18:13.327Z,80.02
2023-10-16T21:20:40.157Z,72.51
2023-10-16T21:23:06.896Z,73.75
2023-10-16T21:25:34.412Z,74.88
2023-10-16T21:28:02.030Z,76.49
2023-10-16T21:30:30.536Z,76.88
2023-10-16T21:32:57.882Z,76.49
2023-10-16T21:35:26.448Z,76.31
2023-10-16T21:37:53.594Z,75.61
2023-10-16T21:40:23.214Z,75.24
2023-10-16T21:42:51.406Z,75.96
2023-10-16T21:45:18.493Z,74.87
2023-10-16T21:47:46.221Z,75.47
2023-10-16T21:50:13.429Z,75.52
2023-10-16T21:52:40.306Z,73.88
2023-10-16T21:55:08.011Z,73.94
2023-10-16T21:57:35.732Z,74.27
2023-10-16T22:00:12.875Z,73.90
2023-10-16T22:02:40.301Z,74.99
2023-10-16T22:05:07.329Z,75.34
2023-10-16T22:10:14.843Z,75.83
2023-10-16T22:12:41.660Z,76.71
2023-10-16T22:15:12.183Z,77.07
2023-10-16T22:20:13.003Z,77.72
2023-10-16T22:22:39.794Z,77.48
2023-10-16T22:25:06.810Z,77.69
2023-10-16T22:27:33.944Z,77.40
2023-10-16T22:30:01.545Z,77.19
2023-10-16T22:32:28.385Z,77.54
2023-10-16T22:34:55.133Z,77.57
2023-10-16T22:37:21.799Z,78.03
2023-10-16T22:39:49.085Z,77.82
2023-10-16T22:42:17.123Z,77.40
2023-10-16T22:44:44.074Z,77.04
2023-10-16T22:47:11.291Z,76.28
2023-10-16T22:49:38.127Z,76.38
2023-10-16T22:52:05.281Z,77.70
2023-10-16T22:54:33.012Z,77.52
2023-10-16T22:56:59.941Z,78.70
2023-10-16T22:59:26.678Z,79.32
2023-10-16T23:01:53.398Z,79.63
2023-10-16T23:04:20.998Z,79.82
2023-10-16T23:06:51.618Z,79.96
2023-10-16T23:09:30.517Z,80.53
2023-10-16T23:12:09.084Z,80.51
2023-10-16T23:14:38.616Z,80.20
2023-10-16T23:19:52.236Z,79.64
2023-10-16T23:22:18.937Z,79.95
2023-10-16T23:27:23.837Z,80.89
2023-10-16T23:29:51.018Z,81.14
2023-10-16T23:32:19.197Z,81.54
2023-10-16T23:34:55.629Z,81.33
2023-10-16T23:37:22.992Z,81.23
2023-10-16T23:39:49.720Z,81.57
2023-10-16T23:42:16.616Z,82.45
2023-10-16T23:44:44.972Z,81.49
2023-10-16T23:47:14.381Z,81.17
2023-10-16T23:49:47.133Z,81.11
2023-10-16T23:52:24.096Z,81.33
2023-10-16T23:57:49.905Z,80.70
